ENBR/BGO METAR and TAF weather

Enter ICAO airport designator
Station Type Date Time Source
ENBR METAR 2018/07/21 22:50 UTC NOAA

ENBR 212250Z 03002KT 9999 FEW005 BKN025 14/13 Q1010 RMK WIND 1200FT 29007KT


Station Type Date Time Source
ENBR Decoded METAR 2018/07/21 22:50 UTC NOAA

Bergen / Flesland, Norway (ENBR) 60-17N 005-14E 50M
Jul 21, 2018 - 06:50 PM EDT / 2018.07.21 2250 UTC
Wind: from the NNE (030 degrees) at 2 MPH (2 KT):0
Visibility: greater than 7 mile(s):0
Sky conditions: mostly cloudy
Temperature: 57 F (14 C)
Dew Point: 55 F (13 C)
Relative Humidity: 93%
Pressure (altimeter): 29.83 in. Hg (1010 hPa)
ob: ENBR 212250Z 03002KT 9999 FEW005 BKN025 14/13 Q1010 RMK WIND 1200FT 29007KT
cycle: 23

Station Type Date Time Source
ENBR TAF 2018/07/21 21:21 UTC NOAA

TAF
AMD ENBR 212109Z 2121/2218 22007KT 9999 BKN015
TEMPO 2121/2204 3000 DZRA BR BKN005
TEMPO 2215/2218 4000 DZRA BR BKN008


Example: see airport list